Aplicació Alertes

Dades de l'estació automàtica Riudoms

?
?
Resum diari 22:30 TU
Dades diàries de l'estació meteorològica
Temperatura mitjana 7.8 °C
Temperatura màxima 12.5 °C 13:17 TU
Temperatura mínima 3.7 °C 6:48 TU
Humitat relativa mitjana 56%
Precipitació acumulada 0.0 mm
Ratxa màxima del vent (2 m) 25.2 km/h - 301º 4:49 TU
Irradiació solar global 9.4 MJ/m2

El tram horari està expressat en Temps Universal (TU). Cal sumar una hora en horari d'hivern i dues en horari d'estiu per passar a l'hora oficial.

Riudoms

Metadades estació meteorol´gica
Municipi Riudoms
Comarca Baix Camp
Altitud 158 m
Data alta 19.10.1999
Estat actual Operativa
Dades de període
Període
TU
TM
°C
TX
°C
TN
°C
HRM
%
PPT
mm
VVM (2 m)
km/h
DVM (2 m)
graus
VVX (2 m)
km/h
RS
W/m2
00:00 - 00:30 6.0 6.1 5.8 65 0.0 4.7 303 21.2 0
00:30 - 01:00 5.7 5.8 5.6 66 0.0 4.7 317 15.1 0
01:00 - 01:30 5.8 5.9 5.8 63 0.0 4.0 308 15.8 0
01:30 - 02:00 5.7 5.8 5.6 65 0.0 6.8 313 21.6 0
02:00 - 02:30 5.6 5.8 5.5 63 0.0 5.0 308 21.6 0
02:30 - 03:00 5.7 5.8 5.5 62 0.0 4.0 308 14.8 0
03:00 - 03:30 5.4 5.5 5.2 66 0.0 5.0 314 16.9 0
03:30 - 04:00 5.1 5.2 4.7 67 0.0 4.7 299 17.6 0
04:00 - 04:30 4.4 4.7 4.2 70 0.0 3.6 4 19.8 0
04:30 - 05:00 4.4 4.5 4.4 70 0.0 5.8 308 25.2 0
05:00 - 05:30 4.3 4.4 4.1 69 0.0 3.6 332 13.0 0
05:30 - 06:00 4.1 4.2 4.0 71 0.0 6.1 326 20.5 0
06:00 - 06:30 4.1 4.2 4.0 71 0.0 5.4 313 17.3 0
06:30 - 07:00 4.0 4.2 3.7 70 0.0 4.3 315 15.1 0
07:00 - 07:30 4.3 4.4 4.1 71 0.0 7.6 316 22.3 7
07:30 - 08:00 4.8 5.6 4.3 67 0.0 7.9 319 21.2 54
08:00 - 08:30 5.8 6.4 5.3 63 0.0 6.1 316 18.4 126
08:30 - 09:00 6.4 6.7 6.3 61 0.0 6.8 326 23.0 200
09:00 - 09:30 7.2 7.5 6.7 58 0.0 6.8 327 19.1 272
09:30 - 10:00 8.0 8.4 7.6 54 0.0 6.8 322 19.8 336
10:00 - 10:30 8.6 8.8 8.5 51 0.0 8.3 316 20.5 388
10:30 - 11:00 9.5 10.2 8.8 47 0.0 6.5 310 19.4 427
11:00 - 11:30 10.6 11.0 10.2 41 0.0 6.5 319 18.0 452
11:30 - 12:00 10.5 10.9 10.2 43 0.0 8.6 320 24.8 462
12:00 - 12:30 10.9 11.5 10.3 45 0.0 6.5 306 15.8 460
12:30 - 13:00 11.2 11.6 10.7 44 0.0 5.4 304 15.5 443
13:00 - 13:30 11.9 12.5 11.4 41 0.0 4.0 292 14.8 409
13:30 - 14:00 11.8 12.2 11.5 40 0.0 4.3 293 17.3 362
14:00 - 14:30 11.7 12.0 11.4 40 0.0 4.7 309 18.0 306
14:30 - 15:00 11.2 11.6 11.0 40 0.0 7.2 310 22.0 238
15:00 - 15:30 10.8 11.1 10.4 41 0.0 4.0 307 12.6 165
15:30 - 16:00 10.1 10.4 9.8 42 0.0 3.2 306 10.1 88
16:00 - 16:30 9.5 9.7 9.3 43 0.0 4.7 316 16.6 12
16:30 - 17:00 9.3 9.4 9.0 47 0.0 5.0 320 17.6 2
17:00 - 17:30 9.3 9.5 9.1 48 0.0 5.4 314 16.2 0
17:30 - 18:00 9.7 9.9 9.5 49 0.0 5.0 303 20.5 0
18:00 - 18:30 9.7 9.9 9.4 51 0.0 5.0 313 16.6 0
18:30 - 19:00 9.5 9.7 9.3 52 0.0 5.0 316 16.6 0
19:00 - 19:30 9.6 9.7 9.5 53 0.0 7.6 313 22.0 0
19:30 - 20:00 9.3 9.5 8.9 55 0.0 6.5 306 21.2 0
20:00 - 20:30 8.7 8.9 8.4 55 0.0 4.3 305 14.0 0
20:30 - 21:00 8.4 8.5 8.1 55 0.0 4.7 307 17.3 0
21:00 - 21:30 8.0 8.2 7.8 57 0.0 4.0 315 20.9 0
21:30 - 22:00 8.0 8.3 7.7 57 0.0 2.5 74 7.6 0
22:00 - 22:30 7.9 8.0 7.7 60 0.0 4.7 335 16.6 0
22:30 - 23:00 7.9 8.0 7.7 62 0.0 5.8 327 18.4 0

Les dades en taronja només han passat un control de qualitat automàtic. Resta pendent la seva validació definitiva.